Time;durP1;ratioP1;P1;durP2;ratioP2;P2;SDS_P1;SDS_P2;PMS_P1;PMS_P2;Temp;Humidity;BMP_temperature;BMP_pressure;BME280_temperature;BME280_humidity;BME280_pressure;Samples;Min_cycle;Max_cycle;Signal;HPM_P1;HPM_P2
2020/12/15 21:02:41;;;;;;;52.72;20.48;;;2.30;93.70;;;;;;5059851;28;20347;-70
2020/12/15 21:05:07;;;;;;;45.17;18.38;;;2.30;94.20;;;;;;5060903;28;20032;-73
2020/12/15 21:07:33;;;;;;;50.03;21.02;;;2.40;94.40;;;;;;5066137;28;20033;-72
2020/12/15 21:09:59;;;;;;;47.25;20.92;;;2.50;94.50;;;;;;5062457;28;20025;-72
2020/12/15 21:12:25;;;;;;;44.05;20.48;;;2.60;94.50;;;;;;5061066;28;20367;-74
2020/12/15 21:14:51;;;;;;;46.38;19.90;;;2.60;94.50;;;;;;5060806;28;20039;-72
2020/12/15 21:17:18;;;;;;;42.53;19.95;;;2.80;94.50;;;;;;5059113;28;20471;-70
2020/12/15 21:19:47;;;;;;;42.92;20.98;;;2.80;94.40;;;;;;5056211;28;20136;-76
2020/12/15 21:22:14;;;;;;;41.38;19.13;;;2.90;94.40;;;;;;5060717;28;20112;-71
2020/12/15 21:24:43;;;;;;;41.60;20.17;;;3.00;94.30;;;;;;5058957;28;20541;-71
2020/12/15 21:27:09;;;;;;;42.58;18.83;;;3.00;94.30;;;;;;5067515;28;20028;-70
2020/12/15 21:29:36;;;;;;;45.63;19.77;;;3.10;94.20;;;;;;5068097;28;20025;-69
2020/12/15 21:32:01;;;;;;;42.53;17.90;;;3.10;94.20;;;;;;5062217;28;20021;-71
2020/12/15 21:34:27;;;;;;;40.83;17.73;;;3.20;94.40;;;;;;5062372;28;20116;-70
2020/12/15 21:36:54;;;;;;;37.00;16.42;;;3.20;93.90;;;;;;5072718;28;20367;-71
2020/12/15 21:39:21;;;;;;;37.03;17.65;;;3.30;93.90;;;;;;5056459;28;20403;-70
2020/12/15 21:41:54;;;;;;;33.88;16.17;;;3.30;93.80;;;;;;5065622;28;20095;-70
2020/12/15 21:44:20;;;;;;;33.15;16.23;;;3.30;93.80;;;;;;5054528;28;20116;-76
2020/12/15 21:46:51;;;;;;;37.63;16.58;;;3.30;93.60;;;;;;5052829;28;20080;-71
2020/12/15 21:49:18;;;;;;;32.03;15.48;;;3.40;93.50;;;;;;5052505;28;20066;-68
2020/12/15 21:51:43;;;;;;;31.55;15.57;;;3.40;93.60;;;;;;5055732;28;20033;-76
2020/12/15 21:54:09;;;;;;;30.95;15.13;;;3.40;93.50;;;;;;5052161;28;20032;-71
2020/12/15 21:56:35;;;;;;;32.17;15.85;;;3.40;93.50;;;;;;5059908;28;20466;-72
2020/12/15 21:59:00;;;;;;;30.42;14.10;;;3.50;93.50;;;;;;5055344;28;20482;-70
2020/12/15 22:01:26;;;;;;;31.45;14.10;;;3.50;93.40;;;;;;5050992;28;20052;-73
2020/12/15 22:03:52;;;;;;;25.90;13.43;;;3.50;93.40;;;;;;5051244;28;20029;-70
2020/12/15 22:06:27;;;;;;;27.75;12.80;;;3.50;93.30;;;;;;5061657;28;20033;-69
2020/12/15 22:08:53;;;;;;;26.55;13.52;;;3.50;93.30;;;;;;5066247;28;20131;-75
2020/12/15 22:11:19;;;;;;;28.33;13.30;;;3.60;93.30;;;;;;5057221;28;20107;-73
2020/12/15 22:13:46;;;;;;;26.33;12.63;;;3.60;93.20;;;;;;5050636;28;20068;-74
2020/12/15 22:16:12;;;;;;;22.90;12.05;;;3.60;93.20;;;;;;5043375;28;20021;-74
2020/12/15 22:18:38;;;;;;;23.30;11.52;;;3.60;93.10;;;;;;5044633;28;20024;-74
2020/12/15 22:21:03;;;;;;;22.63;11.25;;;3.60;93.10;;;;;;5051023;28;20025;-74
2020/12/15 22:23:29;;;;;;;21.73;10.65;;;3.60;93.00;;;;;;5050107;28;20463;-71
2020/12/15 22:25:55;;;;;;;20.92;10.75;;;3.60;92.90;;;;;;5045391;28;20470;-75
2020/12/15 22:28:21;;;;;;;18.95;9.90;;;3.60;92.80;;;;;;5047388;28;20049;-73
2020/12/15 22:30:47;;;;;;;21.60;11.07;;;3.60;92.70;;;;;;5042269;28;20048;-71
2020/12/15 22:33:12;;;;;;;18.85;10.20;;;3.60;92.80;;;;;;5045926;28;20067;-68
2020/12/15 22:35:38;;;;;;;19.58;11.02;;;3.60;92.70;;;;;;5045430;28;20029;-70
2020/12/15 22:38:04;;;;;;;16.88;9.00;;;3.60;92.70;;;;;;5051023;28;20083;-70
2020/12/15 22:40:30;;;;;;;18.83;10.38;;;3.60;92.60;;;;;;5038722;28;20078;-69
2020/12/15 22:42:55;;;;;;;17.52;9.50;;;3.60;92.60;;;;;;5049172;28;20421;-69
2020/12/15 22:45:21;;;;;;;19.40;10.07;;;3.60;92.60;;;;;;5043204;28;20027;-72
2020/12/15 22:47:47;;;;;;;17.38;9.52;;;3.60;92.50;;;;;;5037507;28;20029;-70
2020/12/15 22:50:12;;;;;;;23.98;11.25;;;3.60;92.50;;;;;;5049248;28;20363;-70
2020/12/15 22:52:38;;;;;;;18.23;9.23;;;3.60;92.50;;;;;;5047413;28;20465;-69
2020/12/15 22:55:04;;;;;;;18.17;9.80;;;3.70;92.50;;;;;;5054936;28;20021;-69
2020/12/15 22:57:29;;;;;;;18.83;9.77;;;3.70;92.50;;;;;;5055232;28;20029;-70
2020/12/15 22:59:55;;;;;;;22.55;10.95;;;3.70;92.40;;;;;;5055075;28;20028;-72
2020/12/15 23:02:21;;;;;;;18.98;10.35;;;3.70;92.40;;;;;;5054740;28;20099;-73
2020/12/15 23:04:47;;;;;;;18.23;9.85;;;3.70;92.40;;;;;;5057706;28;20025;-71
2020/12/15 23:07:12;;;;;;;23.50;10.38;;;3.70;92.30;;;;;;5051637;28;20536;-73
2020/12/15 23:09:38;;;;;;;21.00;10.27;;;3.70;92.20;;;;;;5044889;28;20480;-74
2020/12/15 23:12:04;;;;;;;20.67;10.73;;;3.70;92.20;;;;;;5050962;28;20025;-72
2020/12/15 23:14:30;;;;;;;24.25;11.77;;;3.70;92.20;;;;;;5057643;28;20050;-74
2020/12/15 23:16:55;;;;;;;24.90;11.85;;;3.70;92.10;;;;;;5047416;28;20033;-72
2020/12/15 23:19:21;;;;;;;19.88;9.55;;;3.70;92.10;;;;;;5061255;28;20029;-72
2020/12/15 23:21:47;;;;;;;14.63;8.07;;;3.70;92.00;;;;;;5055728;28;20033;-73
2020/12/15 23:24:12;;;;;;;16.17;8.70;;;3.70;91.90;;;;;;5054067;28;20021;-72
2020/12/15 23:26:38;;;;;;;19.35;10.00;;;3.70;91.90;;;;;;5054922;28;20029;-71
2020/12/15 23:29:04;;;;;;;18.23;10.02;;;3.70;92.30;;;;;;5054503;28;20078;-72
2020/12/15 23:31:31;;;;;;;19.17;10.10;;;3.70;92.00;;;;;;5055005;28;20434;-73
2020/12/15 23:33:58;;;;;;;19.73;10.50;;;3.80;92.00;;;;;;5054252;28;20021;-71
2020/12/15 23:36:23;;;;;;;19.25;9.85;;;3.70;91.90;;;;;;5054343;28;20028;-72
2020/12/15 23:38:49;;;;;;;18.17;10.38;;;3.70;91.80;;;;;;5054368;28;20029;-73
2020/12/15 23:41:22;;;;;;;19.30;10.32;;;3.70;91.70;;;;;;5054232;28;20033;-72
2020/12/15 23:43:48;;;;;;;18.90;9.60;;;3.70;91.80;;;;;;5053968;28;20104;-73
2020/12/15 23:46:14;;;;;;;19.05;9.75;;;3.70;91.70;;;;;;5052220;28;20112;-72
2020/12/15 23:48:40;;;;;;;19.08;10.57;;;3.70;91.70;;;;;;5042054;28;20483;-72
2020/12/15 23:51:07;;;;;;;20.88;10.27;;;3.70;91.60;;;;;;5054222;28;20025;-72
2020/12/15 23:53:33;;;;;;;17.75;9.52;;;3.70;91.50;;;;;;5038686;28;20028;-72
2020/12/15 23:55:59;;;;;;;19.95;10.18;;;3.70;91.50;;;;;;5053828;28;20071;-72
2020/12/15 23:58:25;;;;;;;16.90;9.80;;;3.70;91.50;;;;;;5053847;28;20021;-72
